Time;durP1;ratioP1;P1;durP2;ratioP2;P2;SDS_P1;SDS_P2;PMS_P1;PMS_P2;Temp;Humidity;BMP_temperature;BMP_pressure;BME280_temperature;BME280_humidity;BME280_pressure;Samples;Min_cycle;Max_cycle;Signal;HPM_P1;HPM_P2
2021/05/05 00:00:25;;;;;;;2.05;0.70;;;;;;;18.96;46.63;100066.94;5033087;28;20032;-62
2021/05/05 00:02:51;;;;;;;1.52;0.70;;;;;;;18.92;46.45;100065.59;5033523;28;20101;-62
2021/05/05 00:05:17;;;;;;;2.55;0.60;;;;;;;18.92;46.62;100070.88;5032125;28;20100;-62
2021/05/05 00:07:42;;;;;;;1.20;0.60;;;;;;;18.89;46.54;100077.25;5033465;28;20033;-62
2021/05/05 00:10:10;;;;;;;1.63;0.60;;;;;;;18.91;46.63;100082.41;5033058;28;20457;-62
2021/05/05 00:12:37;;;;;;;1.98;0.60;;;;;;;18.87;46.76;100081.88;5031847;28;20564;-62
2021/05/05 00:15:08;;;;;;;1.38;0.60;;;;;;;18.87;46.56;100083.66;5032855;28;20388;-62
2021/05/05 00:17:39;;;;;;;2.58;0.80;;;;;;;18.89;46.79;100087.00;5032602;28;20030;-62
2021/05/05 00:20:06;;;;;;;1.75;0.80;;;;;;;18.87;46.76;100083.66;5032143;28;20025;-63
2021/05/05 00:22:35;;;;;;;1.52;0.73;;;;;;;18.85;46.41;100081.19;5032586;28;20022;-62
2021/05/05 00:25:00;;;;;;;2.50;0.60;;;;;;;18.85;46.97;100086.47;5032554;28;20069;-62
2021/05/05 00:27:26;;;;;;;1.83;0.60;;;;;;;18.84;46.94;100076.88;5032073;28;20044;-62
2021/05/05 00:29:52;;;;;;;2.08;0.70;;;;;;;18.83;46.63;100075.19;5032631;28;20491;-62
2021/05/05 00:32:17;;;;;;;1.58;0.63;;;;;;;18.80;46.78;100068.41;5032009;28;20066;-61
2021/05/05 00:34:42;;;;;;;1.63;0.75;;;;;;;18.80;46.63;100076.31;5032832;28;20052;-62
2021/05/05 00:37:08;;;;;;;2.73;0.70;;;;;;;18.75;46.93;100064.53;5032089;28;20449;-62
2021/05/05 00:39:33;;;;;;;2.63;0.63;;;;;;;18.79;46.83;100066.72;5031546;28;20948;-63
2021/05/05 00:41:58;;;;;;;2.07;0.70;;;;;;;18.77;46.94;100066.06;5032392;28;20021;-62
2021/05/05 00:44:24;;;;;;;1.75;0.70;;;;;;;18.78;46.77;100059.78;5032288;28;20661;-62
2021/05/05 00:46:50;;;;;;;1.98;0.70;;;;;;;18.77;46.57;100060.78;5031821;28;20091;-62
2021/05/05 00:49:15;;;;;;;2.08;0.70;;;;;;;18.75;46.72;100057.44;5032033;28;20469;-61
2021/05/05 00:51:40;;;;;;;1.40;0.60;;;;;;;18.75;46.75;100062.72;5032429;28;20159;-62
2021/05/05 00:54:06;;;;;;;3.17;0.80;;;;;;;18.74;46.87;100055.78;5031497;28;20112;-61
2021/05/05 00:56:31;;;;;;;2.03;0.60;;;;;;;18.74;47.04;100058.44;5031943;28;20033;-61
2021/05/05 00:58:57;;;;;;;1.60;0.60;;;;;;;18.74;46.68;100055.78;5032389;28;20026;-62
2021/05/05 01:01:22;;;;;;;2.08;0.70;;;;;;;18.73;46.92;100059.41;5030684;28;20030;-62
2021/05/05 01:03:50;;;;;;;4.03;0.80;;;;;;;18.70;46.87;100050.94;5032075;28;20392;-62
2021/05/05 01:06:16;;;;;;;2.13;0.60;;;;;;;18.68;46.94;100046.63;5031802;28;20083;-62
2021/05/05 01:08:44;;;;;;;1.25;0.50;;;;;;;18.70;47.12;100049.13;5031249;28;20026;-63
2021/05/05 01:11:16;;;;;;;3.45;0.80;;;;;;;18.68;47.23;100056.38;5032405;28;20036;-62
2021/05/05 01:13:49;;;;;;;3.50;0.77;;;;;;;18.68;46.89;100056.38;5032332;28;20503;-62
2021/05/05 01:16:15;;;;;;;3.23;0.80;;;;;;;18.66;47.20;100047.78;5030833;28;20051;-61
2021/05/05 01:18:41;;;;;;;1.27;0.50;;;;;;;18.66;46.97;100055.69;5031886;28;20282;-62
2021/05/05 01:21:06;;;;;;;3.22;0.70;;;;;;;18.65;46.93;100059.31;5032118;28;20045;-62
2021/05/05 01:23:31;;;;;;;1.67;0.70;;;;;;;18.64;47.24;100049.72;5030716;28;20030;-62
2021/05/05 01:25:57;;;;;;;2.17;0.60;;;;;;;18.61;47.08;100053.50;5031562;28;20504;-61
2021/05/05 01:28:23;;;;;;;2.53;0.60;;;;;;;18.63;47.08;100053.34;5031529;28;20026;-61
2021/05/05 01:30:49;;;;;;;2.13;0.63;;;;;;;18.52;46.91;100035.06;5031072;28;20535;-61
2021/05/05 01:33:18;;;;;;;1.67;0.52;;;;;;;18.58;47.20;100045.03;5031425;28;20025;-62
2021/05/05 01:35:46;;;;;;;2.13;0.60;;;;;;;18.57;46.93;100048.66;5031127;28;20477;-61
2021/05/05 01:38:12;;;;;;;1.38;0.70;;;;;;;18.60;47.40;100049.19;5031699;28;20644;-62
2021/05/05 01:40:44;;;;;;;1.67;0.57;;;;;;;18.58;47.25;100045.88;5031938;28;20097;-61
2021/05/05 01:43:10;;;;;;;1.80;0.60;;;;;;;18.56;47.08;100047.81;5031055;28;20427;-63
2021/05/05 01:45:36;;;;;;;2.97;0.70;;;;;;;18.56;47.20;100047.81;5031369;28;20526;-62
2021/05/05 01:48:06;;;;;;;1.55;0.57;;;;;;;18.55;46.96;100048.81;5031850;28;20112;-62
2021/05/05 01:50:32;;;;;;;1.85;0.60;;;;;;;18.52;46.89;100037.69;5030631;28;20146;-62
2021/05/05 01:52:57;;;;;;;1.92;0.50;;;;;;;18.53;46.99;100040.19;5031839;28;20061;-62
2021/05/05 01:55:23;;;;;;;1.10;0.50;;;;;;;18.52;46.84;100035.91;5031605;28;20435;-62
2021/05/05 01:57:48;;;;;;;1.23;0.50;;;;;;;18.52;46.85;100035.06;5031011;28;20034;-61
2021/05/05 02:00:17;;;;;;;1.05;0.50;;;;;;;18.51;46.77;100033.41;5031304;28;20538;-62
2021/05/05 02:02:43;;;;;;;1.25;0.50;;;;;;;18.48;47.14;100039.81;5031593;28;20041;-62
2021/05/05 02:05:09;;;;;;;1.27;0.50;;;;;;;18.48;46.91;100038.00;5030712;28;20033;-62
2021/05/05 02:07:35;;;;;;;1.98;0.57;;;;;;;18.45;46.90;100033.03;5031439;28;20108;-62
2021/05/05 02:10:02;;;;;;;2.35;0.70;;;;;;;18.44;46.94;100034.00;5031881;28;20044;-62
2021/05/05 02:12:32;;;;;;;1.50;0.45;;;;;;;18.44;46.89;100028.72;5032353;28;20112;-63
2021/05/05 02:14:57;;;;;;;1.63;0.60;;;;;;;18.46;46.80;100039.13;5035681;28;20415;-62
2021/05/05 02:17:22;;;;;;;1.52;0.60;;;;;;;18.42;47.00;100032.47;5035147;28;20022;-63
2021/05/05 02:19:48;;;;;;;1.48;0.60;;;;;;;18.44;46.81;100041.91;5034703;28;20033;-62
2021/05/05 02:22:13;;;;;;;1.45;0.50;;;;;;;18.43;46.97;100047.31;5035472;28;20539;-62
2021/05/05 02:24:39;;;;;;;1.02;0.50;;;;;;;18.41;46.94;100042.19;5040790;28;20564;-61
2021/05/05 02:27:08;;;;;;;1.20;0.60;;;;;;;18.37;46.80;100034.72;5043606;28;20381;-61
2021/05/05 02:29:34;;;;;;;1.77;0.73;;;;;;;18.40;46.87;100044.97;5048949;28;20449;-62
2021/05/05 02:32:02;;;;;;;1.60;0.68;;;;;;;18.40;47.01;100050.25;5048835;28;20032;-62
2021/05/05 02:34:27;;;;;;;1.77;0.60;;;;;;;18.39;46.58;100043.31;5049298;28;20032;-62
2021/05/05 02:36:52;;;;;;;2.28;0.68;;;;;;;18.38;46.98;100047.75;5051243;28;20025;-62
2021/05/05 02:39:20;;;;;;;1.38;0.60;;;;;;;18.38;46.62;100049.59;5050491;28;20042;-62
2021/05/05 02:41:48;;;;;;;1.63;0.60;;;;;;;18.39;46.85;100043.31;5046197;28;20049;-61
2021/05/05 02:44:15;;;;;;;1.70;0.80;;;;;;;18.36;46.78;100055.00;5036179;28;20021;-62
2021/05/05 02:46:40;;;;;;;2.58;0.73;;;;;;;18.33;47.08;100038.63;5035549;28;20037;-62
2021/05/05 02:49:07;;;;;;;1.50;0.60;;;;;;;18.37;47.05;100042.63;5035777;28;20428;-62
2021/05/05 02:51:34;;;;;;;1.90;0.68;;;;;;;18.34;46.78;100041.13;5035100;28;20153;-62
2021/05/05 02:53:59;;;;;;;1.52;0.60;;;;;;;18.35;46.86;100039.31;5034789;28;20036;-62
2021/05/05 02:56:27;;;;;;;2.42;0.60;;;;;;;18.32;46.94;100043.06;5034936;28;20105;-61
2021/05/05 02:58:53;;;;;;;2.80;0.70;;;;;;;18.33;46.72;100052.66;5035258;28;20018;-61
2021/05/05 03:01:18;;;;;;;1.65;0.60;;;;;;;18.32;47.10;100053.63;5034397;28;20035;-62
2021/05/05 03:03:46;;;;;;;1.13;0.50;;;;;;;18.27;46.85;100043.50;5034900;28;20075;-62
2021/05/05 03:06:11;;;;;;;1.17;0.50;;;;;;;18.30;46.68;100061.69;5034922;28;20025;-62
2021/05/05 03:08:39;;;;;;;1.75;0.60;;;;;;;18.29;46.92;100054.75;5033562;28;20087;-62
2021/05/05 03:11:05;;;;;;;2.10;0.70;;;;;;;18.30;46.80;100061.69;5034471;28;20025;-62
2021/05/05 03:13:30;;;;;;;2.17;0.60;;;;;;;18.28;46.94;100063.63;5034209;28;20037;-62
2021/05/05 03:15:56;;;;;;;1.92;0.57;;;;;;;18.29;47.22;100057.41;5033471;28;20017;-62
2021/05/05 03:18:21;;;;;;;1.45;0.60;;;;;;;18.28;46.82;100055.72;5034452;28;20033;-64
2021/05/05 03:20:47;;;;;;;1.17;0.47;;;;;;;18.27;46.85;100056.69;5034378;28;20030;-62
2021/05/05 03:23:12;;;;;;;1.63;0.63;;;;;;;18.27;46.77;100066.41;5032591;28;20033;-63
2021/05/05 03:25:38;;;;;;;1.65;0.60;;;;;;;18.26;46.73;100064.75;5033629;28;20052;-62
2021/05/05 03:28:03;;;;;;;2.65;0.90;;;;;;;18.25;46.76;100063.09;5034018;28;20125;-61
2021/05/05 03:30:28;;;;;;;1.63;0.60;;;;;;;18.24;46.73;100074.63;5033714;28;20026;-63
2021/05/05 03:32:55;;;;;;;2.28;0.95;;;;;;;18.23;46.91;100076.44;5034364;28;20032;-62
2021/05/05 03:35:20;;;;;;;2.75;0.80;;;;;;;18.23;46.81;100065.88;5032827;28;20041;-63
2021/05/05 03:37:48;;;;;;;1.67;0.63;;;;;;;18.23;46.96;100060.59;5034315;28;20087;-63
2021/05/05 03:40:15;;;;;;;3.08;0.77;;;;;;;18.26;46.86;100068.22;5033736;28;20469;-61
2021/05/05 03:42:40;;;;;;;3.05;0.70;;;;;;;18.29;46.61;100070.59;5033247;28;20452;-61
2021/05/05 03:45:07;;;;;;;1.58;0.50;;;;;;;18.33;46.65;100073.75;5033744;28;20029;-62
2021/05/05 03:47:33;;;;;;;2.15;0.60;;;;;;;18.30;46.89;100059.03;5049002;28;20082;-62
2021/05/05 03:49:58;;;;;;;2.15;0.70;;;;;;;18.36;46.79;100059.44;5033112;28;20032;-62
2021/05/05 03:52:25;;;;;;;1.83;0.70;;;;;;;18.40;47.04;100066.91;5033259;28;20029;-62
2021/05/05 03:54:50;;;;;;;2.22;0.63;;;;;;;18.41;46.75;100063.31;5033545;28;20287;-62
2021/05/05 03:57:16;;;;;;;1.83;0.60;;;;;;;18.42;46.96;100064.13;5032475;28;20380;-63
2021/05/05 03:59:41;;;;;;;1.83;0.60;;;;;;;18.42;46.81;100059.69;5033459;28;20030;-63
2021/05/05 04:02:09;;;;;;;2.43;0.70;;;;;;;18.44;46.45;100073.56;5033582;28;20044;-62
2021/05/05 04:04:34;;;;;;;3.45;0.70;;;;;;;18.44;46.51;100065.66;5032338;28;20742;-61
2021/05/05 04:07:00;;;;;;;1.93;0.67;;;;;;;18.43;45.98;100074.53;5033457;28;20095;-62
2021/05/05 04:09:25;;;;;;;2.33;0.60;;;;;;;18.40;45.92;100069.53;5033003;28;20634;-62
2021/05/05 04:11:53;;;;;;;2.13;0.65;;;;;;;18.40;45.35;100063.44;5032803;28;20033;-63
2021/05/05 04:14:19;;;;;;;2.83;0.77;;;;;;;18.40;45.42;100066.91;5032570;28;20033;-62
2021/05/05 04:16:44;;;;;;;2.95;0.73;;;;;;;18.39;45.37;100073.19;5033307;28;20025;-62
2021/05/05 04:19:12;;;;;;;2.67;0.60;;;;;;;18.37;45.40;100071.66;5032579;28;20057;-62
2021/05/05 04:21:37;;;;;;;1.65;0.50;;;;;;;18.35;45.33;100082.34;5032954;28;20271;-62
2021/05/05 04:24:04;;;;;;;2.00;0.60;;;;;;;18.34;45.38;100082.50;5032948;28;20028;-62
2021/05/05 04:26:29;;;;;;;2.70;0.77;;;;;;;18.33;45.45;100089.59;5031864;28;20095;-62
2021/05/05 04:28:55;;;;;;;2.92;0.85;;;;;;;18.32;45.69;100090.53;5032840;28;20061;-62
2021/05/05 04:31:23;;;;;;;2.50;0.90;;;;;;;18.31;45.93;100091.53;5032189;28;20025;-63
2021/05/05 04:33:49;;;;;;;3.08;0.80;;;;;;;18.31;46.14;100088.91;5033051;28;20121;-62
2021/05/05 04:36:14;;;;;;;1.83;0.70;;;;;;;18.30;46.08;100093.31;5032312;28;20046;-62
2021/05/05 04:38:43;;;;;;;2.33;0.80;;;;;;;18.30;46.38;100093.31;5031934;28;20561;-62
2021/05/05 04:41:09;;;;;;;2.33;0.70;;;;;;;18.31;46.51;100107.38;5032560;28;20048;-62
2021/05/05 04:43:34;;;;;;;1.83;0.80;;;;;;;18.32;46.34;100114.28;5032400;28;20476;-62
2021/05/05 04:46:00;;;;;;;2.78;0.82;;;;;;;18.34;46.09;100115.00;5032213;28;20539;-62
2021/05/05 04:48:25;;;;;;;1.60;0.80;;;;;;;18.38;46.10;100126.91;5032246;28;20022;-62
2021/05/05 04:50:51;;;;;;;2.15;0.82;;;;;;;18.39;46.11;100136.50;5032679;28;20025;-63
2021/05/05 04:53:16;;;;;;;1.88;0.80;;;;;;;18.39;46.36;100139.13;5031372;28;20490;-63
2021/05/05 04:55:41;;;;;;;2.40;0.85;;;;;;;18.43;46.30;100139.66;5032442;28;20045;-62
2021/05/05 04:58:07;;;;;;;2.83;1.00;;;;;;;18.44;46.29;100143.97;5032233;28;20104;-62
2021/05/05 05:00:33;;;;;;;2.47;0.90;;;;;;;18.45;46.29;100148.25;5031365;28;20470;-61
2021/05/05 05:02:59;;;;;;;1.92;0.77;;;;;;;18.45;46.18;100149.13;5032490;28;20105;-63
2021/05/05 05:05:24;;;;;;;3.53;0.98;;;;;;;18.45;46.74;100151.75;5032164;28;20043;-62
2021/05/05 05:07:49;;;;;;;2.05;0.80;;;;;;;18.43;46.62;100153.69;5031397;28;20085;-62
2021/05/05 05:10:15;;;;;;;3.13;1.10;;;;;;;18.46;46.70;100163.94;5031972;28;20081;-61
2021/05/05 05:12:41;;;;;;;2.42;0.88;;;;;;;18.47;46.75;100162.16;5032177;28;20030;-62
2021/05/05 05:15:07;;;;;;;1.92;0.70;;;;;;;18.48;46.73;100161.16;5031394;28;20040;-62
2021/05/05 05:17:33;;;;;;;1.35;0.63;;;;;;;18.52;46.42;100157.28;5031995;28;20087;-63
2021/05/05 05:19:58;;;;;;;2.20;0.70;;;;;;;18.58;46.44;100158.50;5032117;28;20420;-62
2021/05/05 05:22:26;;;;;;;2.75;0.77;;;;;;;18.62;45.99;100158.06;5031004;28;20029;-61
2021/05/05 05:24:52;;;;;;;1.75;0.68;;;;;;;18.66;45.84;100162.09;5031809;28;20451;-62
2021/05/05 05:27:17;;;;;;;3.42;0.90;;;;;;;18.72;45.88;100171.22;5031536;28;20022;-63
2021/05/05 05:29:42;;;;;;;2.25;0.73;;;;;;;18.77;45.50;100171.66;5031041;28;20025;-62
2021/05/05 05:32:08;;;;;;;1.95;0.73;;;;;;;18.83;45.30;100175.50;5032043;28;20026;-62
2021/05/05 05:34:34;;;;;;;1.73;0.70;;;;;;;18.87;45.31;100179.56;5031606;28;20033;-62
2021/05/05 05:37:00;;;;;;;1.73;0.60;;;;;;;18.91;45.01;100172.16;5031146;28;20029;-62
2021/05/05 05:39:26;;;;;;;1.17;0.50;;;;;;;18.95;45.13;100177.00;5031654;28;20160;-62
2021/05/05 05:41:51;;;;;;;1.38;0.60;;;;;;;18.98;45.02;100175.91;5030994;28;20391;-62
2021/05/05 05:44:16;;;;;;;2.05;0.70;;;;;;;19.03;44.92;100185.03;5031519;28;20033;-63
2021/05/05 05:46:42;;;;;;;1.98;0.65;;;;;;;19.08;44.69;100192.50;5031337;28;20041;-64
2021/05/05 05:49:08;;;;;;;1.15;0.60;;;;;;;19.12;44.88;100195.69;5030919;28;20107;-63
2021/05/05 05:51:35;;;;;;;2.58;0.70;;;;;;;19.12;44.77;100188.63;5031475;28;20100;-62
2021/05/05 05:54:01;;;;;;;2.67;0.70;;;;;;;19.18;44.68;100203.03;5031580;28;20107;-62
2021/05/05 05:56:26;;;;;;;1.58;0.70;;;;;;;19.19;44.42;100204.69;5030616;28;20421;-62
2021/05/05 05:58:55;;;;;;;1.10;0.60;;;;;;;19.25;44.43;100201.47;5031844;28;20021;-62
2021/05/05 06:01:20;;;;;;;3.30;0.70;;;;;;;19.29;44.31;100209.94;5031543;28;20087;-62
2021/05/05 06:03:46;;;;;;;2.70;0.50;;;;;;;19.33;44.36;100213.94;5030960;28;20022;-63
2021/05/05 06:06:11;;;;;;;2.03;0.50;;;;;;;19.27;44.19;100207.44;5031440;28;20026;-61
2021/05/05 06:08:37;;;;;;;1.75;0.70;;;;;;;19.36;44.31;100230.31;5031139;28;20052;-62
2021/05/05 06:11:03;;;;;;;3.05;0.73;;;;;;;19.38;44.31;100232.81;5030583;28;20399;-63
2021/05/05 06:13:28;;;;;;;2.33;0.70;;;;;;;19.41;44.37;100232.53;5031233;28;20495;-63
2021/05/05 06:15:54;;;;;;;1.80;0.60;;;;;;;19.43;44.49;100227.91;5031491;28;20472;-62
2021/05/05 06:18:25;;;;;;;1.70;0.60;;;;;;;19.45;44.28;100239.16;5030123;28;20029;-63
2021/05/05 06:20:50;;;;;;;2.15;0.70;;;;;;;19.48;44.08;100235.41;5031220;28;20120;-62
2021/05/05 06:23:15;;;;;;;3.28;0.70;;;;;;;19.49;44.03;100245.00;5031093;28;20106;-63
2021/05/05 06:25:44;;;;;;;2.00;0.70;;;;;;;19.50;43.85;100241.38;5030168;28;20041;-60
2021/05/05 06:28:12;;;;;;;2.35;0.63;;;;;;;19.51;43.94;100241.22;5031457;28;20025;-61
2021/05/05 06:30:38;;;;;;;1.40;0.50;;;;;;;19.53;44.37;100244.53;5031076;28;20033;-63
2021/05/05 06:33:03;;;;;;;2.72;0.90;;;;;;;19.55;43.99;100254.97;5030356;28;20117;-64
2021/05/05 06:35:28;;;;;;;2.15;0.70;;;;;;;19.55;43.94;100253.16;5030940;28;20150;-66
2021/05/05 06:37:57;;;;;;;1.40;0.60;;;;;;;19.57;44.41;100253.03;5031172;28;20061;-64
2021/05/05 06:40:22;;;;;;;1.35;0.60;;;;;;;19.58;44.25;100259.94;5030859;28;20045;-63
2021/05/05 06:42:48;;;;;;;3.10;0.70;;;;;;;19.60;44.22;100268.59;5031264;28;20029;-64
2021/05/05 06:45:14;;;;;;;0.80;0.50;;;;;;;19.62;44.08;100266.63;5030258;28;20045;-63
2021/05/05 06:47:42;;;;;;;2.40;0.90;;;;;;;19.64;44.52;100256.72;5031267;28;20033;-62
2021/05/05 06:50:08;;;;;;;2.65;0.75;;;;;;;19.67;44.32;100260.91;5031135;28;20044;-61
2021/05/05 06:52:34;;;;;;;3.75;1.00;;;;;;;19.68;44.55;100262.56;5029722;28;20026;-64
2021/05/05 06:54:59;;;;;;;2.35;0.70;;;;;;;19.67;44.21;100267.00;5031057;28;20209;-63
2021/05/05 06:57:25;;;;;;;2.42;0.52;;;;;;;19.69;44.41;100264.22;5030776;28;20033;-63
2021/05/05 06:59:50;;;;;;;2.20;0.70;;;;;;;19.64;44.54;100258.53;5032539;28;20026;-63
2021/05/05 07:02:16;;;;;;;1.75;0.60;;;;;;;19.65;44.71;100261.03;5034140;28;20132;-65
2021/05/05 07:04:41;;;;;;;2.13;0.63;;;;;;;19.66;44.51;100269.78;5034430;28;20128;-64
2021/05/05 07:07:06;;;;;;;1.43;0.57;;;;;;;19.67;44.91;100268.81;5033607;28;20017;-63
2021/05/05 07:09:35;;;;;;;3.30;0.70;;;;;;;19.69;44.52;100275.63;5034168;28;20282;-63
2021/05/05 07:12:00;;;;;;;3.35;0.80;;;;;;;19.70;44.44;100273.81;5034586;28;20189;-64
2021/05/05 07:14:26;;;;;;;1.95;0.70;;;;;;;19.72;44.61;100277.94;5033394;28;20041;-64
2021/05/05 07:16:51;;;;;;;1.67;0.70;;;;;;;19.72;44.98;100277.13;5034290;28;20028;-63
2021/05/05 07:19:20;;;;;;;3.90;0.75;;;;;;;19.71;44.91;100280.75;5033672;28;20052;-63
2021/05/05 07:21:45;;;;;;;2.70;0.70;;;;;;;19.73;45.13;100284.09;5034643;28;20028;-65
2021/05/05 07:24:10;;;;;;;1.85;0.60;;;;;;;19.73;45.37;100282.28;5035140;28;20029;-64
2021/05/05 07:26:36;;;;;;;2.40;0.80;;;;;;;19.74;45.07;100277.81;5033582;28;20049;-67
2021/05/05 07:29:01;;;;;;;1.65;0.50;;;;;;;19.74;45.24;100281.31;5033970;28;20037;-64
2021/05/05 07:31:26;;;;;;;1.52;0.60;;;;;;;19.73;45.32;100286.75;5039315;28;20140;-65
2021/05/05 07:33:56;;;;;;;2.03;0.70;;;;;;;19.66;45.48;100283.84;5053774;28;20024;-63
2021/05/05 07:36:26;;;;;;;2.50;0.75;;;;;;;19.69;45.40;100288.84;5052934;28;20032;-61
2021/05/05 07:49:10;;;;;;;3.35;0.70;;;;;;;19.57;46.07;100293.50;5052720;28;20075;-66
2021/05/05 07:51:36;;;;;;;3.15;0.70;;;;;;;19.55;46.05;100300.75;5052959;28;20507;-62
2021/05/05 07:54:01;;;;;;;2.38;0.68;;;;;;;19.54;45.82;100307.00;5053367;28;20025;-63
2021/05/05 07:56:27;;;;;;;2.97;1.17;;;;;;;19.44;46.00;100295.66;5052210;28;20025;-63
2021/05/05 07:58:54;;;;;;;2.75;0.60;;;;;;;19.48;45.93;100309.41;5053158;28;20025;-63
2021/05/05 08:01:20;;;;;;;2.67;0.80;;;;;;;19.43;46.11;100323.06;5052840;28;20100;-61
2021/05/05 08:03:45;;;;;;;2.85;0.70;;;;;;;19.42;46.15;100331.13;5052610;28;20385;-62
2021/05/05 08:06:11;;;;;;;2.85;0.90;;;;;;;19.37;45.94;100321.81;5052567;28;20492;-61
2021/05/05 08:08:39;;;;;;;2.35;0.80;;;;;;;19.30;46.46;100325.19;5052804;28;20029;-62
2021/05/05 08:11:04;;;;;;;3.33;0.60;;;;;;;19.27;46.22;100315.75;5051942;28;20075;-62
2021/05/05 08:13:30;;;;;;;2.63;0.70;;;;;;;19.29;46.54;100320.88;5052483;28;20032;-63
2021/05/05 08:15:56;;;;;;;3.75;1.10;;;;;;;19.31;46.10;100329.50;5053047;28;20045;-63
2021/05/05 08:18:22;;;;;;;3.95;0.90;;;;;;;19.35;46.32;100328.22;5054741;28;20031;-65
2021/05/05 08:20:47;;;;;;;3.88;0.98;;;;;;;19.39;46.25;100327.81;5055609;28;20025;-64
2021/05/05 08:23:13;;;;;;;3.85;1.42;;;;;;;19.37;45.69;100318.34;5053682;28;20025;-63
2021/05/05 08:25:40;;;;;;;3.25;1.00;;;;;;;19.37;46.06;100323.63;5052343;28;20071;-63
2021/05/05 08:28:05;;;;;;;5.07;0.93;;;;;;;19.39;45.57;100329.59;5053089;28;20033;-63
2021/05/05 08:30:31;;;;;;;2.92;0.88;;;;;;;19.36;45.83;100328.09;5051496;28;20021;-64
2021/05/05 08:32:56;;;;;;;3.03;0.93;;;;;;;19.33;45.67;100328.38;5052693;28;20440;-63
2021/05/05 08:35:25;;;;;;;4.28;1.13;;;;;;;19.30;45.70;100338.41;5052269;28;20387;-62
2021/05/05 08:37:51;;;;;;;4.47;1.15;;;;;;;19.29;45.51;100347.31;5051834;28;20041;-61
2021/05/05 08:40:18;;;;;;;3.55;1.08;;;;;;;19.27;45.76;100344.81;5052140;28;20025;-63
2021/05/05 08:42:44;;;;;;;3.38;1.00;;;;;;;19.28;45.85;100351.78;5053051;28;20021;-64
2021/05/05 08:45:21;;;;;;;4.30;1.20;;;;;;;19.29;46.18;100352.59;5051760;28;20082;-65
2021/05/05 08:47:48;;;;;;;4.00;0.93;;;;;;;19.30;45.79;100360.38;5052892;28;20100;-66
2021/05/05 08:50:16;;;;;;;4.72;1.17;;;;;;;19.34;45.48;100358.25;5052684;28;20468;-65
2021/05/05 08:52:42;;;;;;;4.45;1.40;;;;;;;19.39;45.65;100369.22;5052818;28;20029;-65
2021/05/05 08:55:09;;;;;;;6.25;1.10;;;;;;;19.39;45.28;100369.22;5053228;28;20065;-66
2021/05/05 08:57:35;;;;;;;4.40;1.00;;;;;;;19.45;45.67;100376.59;5053260;28;20075;-67
2021/05/05 09:00:00;;;;;;;4.32;1.10;;;;;;;19.46;45.33;100380.06;5052701;28;20033;-65
2021/05/05 09:02:27;;;;;;;4.97;1.02;;;;;;;19.45;45.43;100368.66;5050695;28;20029;-64
2021/05/05 09:05:00;;;;;;;3.78;1.02;;;;;;;19.47;45.48;100374.66;5052311;28;20025;-64
2021/05/05 09:07:31;;;;;;;5.68;1.13;;;;;;;19.48;45.74;100394.78;5051086;28;20021;-65
2021/05/05 09:10:25;;;;;;;3.63;1.00;;;;;;;19.47;45.50;100389.66;5051830;28;20071;-66
2021/05/05 09:12:54;;;;;;;5.57;1.20;;;;;;;19.42;45.41;100408.59;5049721;28;20136;-65
2021/05/05 09:15:24;;;;;;;6.57;1.63;;;;;;;19.39;45.55;100420.28;5051803;28;20036;-65
2021/05/05 09:17:53;;;;;;;3.55;1.13;;;;;;;19.39;45.67;100414.16;5052394;28;20059;-66
2021/05/05 09:20:29;;;;;;;3.33;1.02;;;;;;;19.35;45.98;100404.88;5051864;28;20051;-67
2021/05/05 09:22:58;;;;;;;3.55;1.00;;;;;;;19.36;46.21;100406.53;5051370;28;20033;-65
2021/05/05 09:25:29;;;;;;;3.50;1.05;;;;;;;19.39;46.02;100414.16;5052283;28;20075;-67
2021/05/05 09:28:18;;;;;;;4.22;1.02;;;;;;;19.39;46.11;100401.78;5052289;28;20100;-67
2021/05/05 09:30:46;;;;;;;3.90;0.95;;;;;;;19.39;45.91;100412.38;5052278;28;20449;-63
2021/05/05 09:33:27;;;;;;;2.92;0.90;;;;;;;19.40;46.36;100413.19;5052994;28;20537;-65
2021/05/05 09:35:59;;;;;;;2.72;0.95;;;;;;;19.38;46.24;100423.06;5051172;28;20021;-67
2021/05/05 09:38:49;;;;;;;4.22;1.77;;;;;;;19.37;46.55;100426.69;5051390;28;20071;-63
2021/05/05 09:41:20;;;;;;;3.97;1.00;;;;;;;19.30;46.53;100434.34;5050732;28;20028;-65
2021/05/05 09:43:46;;;;;;;3.65;1.20;;;;;;;19.29;46.27;100440.59;5052790;28;20037;-68
2021/05/05 09:46:31;;;;;;;3.78;1.10;;;;;;;19.29;46.18;100448.53;5052670;28;20021;-67
2021/05/05 09:49:15;;;;;;;3.97;1.08;;;;;;;19.23;46.23;100459.66;5050713;28;20029;-65
2021/05/05 09:51:52;;;;;;;4.97;1.00;;;;;;;19.22;46.59;100465.94;5051669;28;20492;-66
2021/05/05 09:54:38;;;;;;;5.90;1.10;;;;;;;19.21;46.38;100470.34;5051734;28;20020;-64
2021/05/05 09:57:22;;;;;;;2.78;0.82;;;;;;;19.21;46.33;100465.06;5051649;28;20047;-64
2021/05/05 09:59:58;;;;;;;2.97;0.98;;;;;;;19.18;46.26;100475.97;5051863;28;20021;-65
2021/05/05 10:02:25;;;;;;;3.53;1.00;;;;;;;19.20;46.27;100470.50;5050820;28;20029;-68
2021/05/05 10:05:03;;;;;;;3.45;1.00;;;;;;;19.20;46.37;100470.50;5051844;28;20031;-67
2021/05/05 10:07:29;;;;;;;4.45;1.10;;;;;;;19.19;46.44;100477.59;5051164;28;20031;-64
2021/05/05 10:09:54;;;;;;;3.00;1.10;;;;;;;19.16;46.15;100475.25;5040819;28;20025;-61
2021/05/05 10:12:22;;;;;;;4.22;1.08;;;;;;;19.14;46.43;100486.94;5031143;28;20398;-61
2021/05/05 10:14:51;;;;;;;4.28;1.13;;;;;;;19.12;46.39;100502.94;5043562;28;20057;-61
2021/05/05 10:17:17;;;;;;;5.53;1.10;;;;;;;19.10;46.26;100504.03;5049640;28;20021;-62
2021/05/05 10:19:44;;;;;;;5.65;1.45;;;;;;;19.14;46.66;100513.34;5050052;28;20094;-62
2021/05/05 10:22:11;;;;;;;4.35;1.13;;;;;;;19.15;46.38;100529.06;5051156;28;20053;-62
2021/05/05 10:24:41;;;;;;;5.53;1.13;;;;;;;19.15;46.18;100528.22;5050119;28;20053;-63
2021/05/05 10:27:07;;;;;;;3.60;1.20;;;;;;;19.17;46.00;100536.84;5050722;28;20041;-62
2021/05/05 10:29:35;;;;;;;3.88;1.00;;;;;;;19.19;46.02;100540.19;5051107;28;20060;-61
2021/05/05 10:32:05;;;;;;;3.95;1.30;;;;;;;19.18;46.39;100552.56;5050269;28;20471;-66
2021/05/05 10:34:31;;;;;;;4.88;1.23;;;;;;;19.20;46.21;100570.88;5054346;28;20033;-64
2021/05/05 10:37:00;;;;;;;3.92;0.90;;;;;;;19.19;45.85;100587.72;5054977;28;20028;-63
2021/05/05 10:39:31;;;;;;;3.03;0.90;;;;;;;19.18;45.92;100597.47;5053880;28;20075;-64
2021/05/05 10:42:00;;;;;;;4.50;1.10;;;;;;;19.17;45.87;100589.69;5054778;28;20494;-66
2021/05/05 10:44:40;;;;;;;4.40;1.05;;;;;;;19.16;46.03;100577.44;5054237;28;20335;-67
2021/05/05 10:47:34;;;;;;;3.35;1.00;;;;;;;19.15;46.00;100587.19;5054989;28;20021;-66
2021/05/05 10:50:03;;;;;;;4.13;1.10;;;;;;;19.14;46.35;100588.13;5055761;28;20025;-67
2021/05/05 10:52:57;;;;;;;3.10;0.88;;;;;;;19.14;46.28;100587.31;5055206;28;20036;-68
2021/05/05 10:55:40;;;;;;;3.65;1.00;;;;;;;19.14;46.14;100589.97;5046352;28;20045;-68
2021/05/05 10:58:12;;;;;;;3.75;0.90;;;;;;;19.14;46.29;100589.97;5054737;28;20021;-64
2021/05/05 11:00:48;;;;;;;3.20;1.02;;;;;;;19.13;46.43;100591.75;5054416;28;20123;-63
2021/05/05 11:03:15;;;;;;;4.07;1.00;;;;;;;19.12;46.54;100582.16;5053987;28;20353;-64
2021/05/05 11:05:42;;;;;;;2.70;0.90;;;;;;;19.11;46.31;100583.13;5053758;28;20033;-62
2021/05/05 11:08:28;;;;;;;4.63;1.05;;;;;;;19.12;46.54;100597.16;5054330;28;20104;-63
2021/05/05 11:10:58;;;;;;;5.35;1.13;;;;;;;19.12;46.46;100597.16;5053676;28;20041;-63
2021/05/05 11:13:30;;;;;;;3.63;0.88;;;;;;;19.14;46.65;100582.03;5053134;28;20028;-67
2021/05/05 11:15:57;;;;;;;3.47;1.00;;;;;;;19.16;46.69;100598.56;5054587;28;20029;-67
2021/05/05 11:18:28;;;;;;;3.97;1.00;;;;;;;19.20;46.49;100602.59;5054518;28;20021;-68
2021/05/05 11:20:56;;;;;;;3.53;0.93;;;;;;;19.19;46.26;100599.13;5054472;28;20036;-69
2021/05/05 11:23:39;;;;;;;4.40;1.20;;;;;;;19.25;46.30;100605.69;5054812;28;20479;-69
2021/05/05 11:26:18;;;;;;;4.00;1.08;;;;;;;19.27;46.14;100613.47;5055013;28;20057;-65
2021/05/05 11:28:59;;;;;;;4.70;1.05;;;;;;;19.27;45.21;100622.22;5054194;28;20348;-66
2021/05/05 11:31:49;;;;;;;4.95;1.10;;;;;;;19.24;45.03;100621.66;5054321;28;20033;-65
2021/05/05 11:34:20;;;;;;;5.55;1.45;;;;;;;19.24;45.16;100656.00;5052976;28;20071;-65
2021/05/05 11:36:55;;;;;;;3.60;0.90;;;;;;;19.24;45.30;100663.94;5054897;28;20028;-65